Hagerman, New Mexico
Current Conditions -  °F | °C
As of 7:51 AM on Monday 24 Nov 2014 (Local Time) from KROW Reporting Station
Clear Clear  
Wind Chill: 32°   Ceiling: Unl
Heat Index: 36°   Visibility: 10mi
Dew Point: 14°   Wind: 5mph
Humidity: 41%   Direction: 140°SE
Pressure: 30.11"   Gusts: NA
Location:  33.12°N, 104.33°W
Report Text: KROW 241451Z 14004KT 10SM CLR 02/M10 A3011 RMK AO2 SLP191 T00221100 53020
Loading
Personal Weather Stations






























Interactive Weather Map New forecast layout! Learn more

10-Day Weather Forecast

Advertisements
Track Severe Weather on mobile